sensor_id;sensor_type;location;lat;lon;timestamp;P1;P2;P0
70243;PMS7003;57634;51.136;17.024;2023-06-22T00:00:15;15;15;11
70243;PMS7003;57634;51.136;17.024;2023-06-22T00:03:22;16;15;10
70243;PMS7003;57634;51.136;17.024;2023-06-22T00:06:25;14;14;10
70243;PMS7003;57634;51.136;17.024;2023-06-22T00:09:26;14;13;9
70243;PMS7003;57634;51.136;17.024;2023-06-22T00:12:27;13;12;9
70243;PMS7003;57634;51.136;17.024;2023-06-22T00:15:28;15;14;11
70243;PMS7003;57634;51.136;17.024;2023-06-22T00:25:26;15;14;11
70243;PMS7003;57634;51.136;17.024;2023-06-22T00:31:31;16;15;10
70243;PMS7003;57634;51.136;17.024;2023-06-22T00:34:32;15;15;10
70243;PMS7003;57634;51.136;17.024;2023-06-22T00:37:33;16;15;11
70243;PMS7003;57634;51.136;17.024;2023-06-22T00:40:37;15;14;9
70243;PMS7003;57634;51.136;17.024;2023-06-22T00:43:38;12;12;9
70243;PMS7003;57634;51.136;17.024;2023-06-22T00:46:41;14;14;10
70243;PMS7003;57634;51.136;17.024;2023-06-22T00:49:42;15;15;10
70243;PMS7003;57634;51.136;17.024;2023-06-22T00:53:10;14;14;10
70243;PMS7003;57634;51.136;17.024;2023-06-22T00:56:13;17;16;10
70243;PMS7003;57634;51.136;17.024;2023-06-22T00:59:14;15;14;11
70243;PMS7003;57634;51.136;17.024;2023-06-22T01:02:21;15;15;11
70243;PMS7003;57634;51.136;17.024;2023-06-22T01:05:22;16;13;10
70243;PMS7003;57634;51.136;17.024;2023-06-22T01:11:41;15;14;10
70243;PMS7003;57634;51.136;17.024;2023-06-22T01:14:55;14;13;9
70243;PMS7003;57634;51.136;17.024;2023-06-22T01:18:29;15;14;10
70243;PMS7003;57634;51.136;17.024;2023-06-22T01:21:37;11;11;8
70243;PMS7003;57634;51.136;17.024;2023-06-22T01:27:58;13;13;11
70243;PMS7003;57634;51.136;17.024;2023-06-22T01:31:16;14;14;11
70243;PMS7003;57634;51.136;17.024;2023-06-22T01:34:45;13;13;10
70243;PMS7003;57634;51.136;17.024;2023-06-22T01:37:50;14;14;10
70243;PMS7003;57634;51.136;17.024;2023-06-22T01:40:51;13;13;9
70243;PMS7003;57634;51.136;17.024;2023-06-22T01:43:53;13;13;10
70243;PMS7003;57634;51.136;17.024;2023-06-22T01:46:56;14;13;10
70243;PMS7003;57634;51.136;17.024;2023-06-22T01:49:58;16;14;10
70243;PMS7003;57634;51.136;17.024;2023-06-22T01:52:59;13;12;8
70243;PMS7003;57634;51.136;17.024;2023-06-22T01:56:00;12;10;8
70243;PMS7003;57634;51.136;17.024;2023-06-22T02:02:15;15;13;11
70243;PMS7003;57634;51.136;17.024;2023-06-22T02:05:51;15;14;10
70243;PMS7003;57634;51.136;17.024;2023-06-22T02:08:59;17;16;10
70243;PMS7003;57634;51.136;17.024;2023-06-22T02:12:03;15;14;10
70243;PMS7003;57634;51.136;17.024;2023-06-22T02:15:08;15;15;10
70243;PMS7003;57634;51.136;17.024;2023-06-22T02:18:11;15;14;10
70243;PMS7003;57634;51.136;17.024;2023-06-22T02:21:13;15;14;9
70243;PMS7003;57634;51.136;17.024;2023-06-22T02:24:14;8;8;5
70243;PMS7003;57634;51.136;17.024;2023-06-22T02:27:15;13;13;10
70243;PMS7003;57634;51.136;17.024;2023-06-22T02:30:17;13;12;10
70243;PMS7003;57634;51.136;17.024;2023-06-22T02:33:18;14;13;10
70243;PMS7003;57634;51.136;17.024;2023-06-22T02:36:46;13;13;10
70243;PMS7003;57634;51.136;17.024;2023-06-22T02:39:52;15;15;11
70243;PMS7003;57634;51.136;17.024;2023-06-22T02:42:53;15;15;10
70243;PMS7003;57634;51.136;17.024;2023-06-22T02:45:54;13;12;9
70243;PMS7003;57634;51.136;17.024;2023-06-22T02:48:56;12;12;10
70243;PMS7003;57634;51.136;17.024;2023-06-22T02:51:57;17;13;9
70243;PMS7003;57634;51.136;17.024;2023-06-22T02:54:58;15;15;11
70243;PMS7003;57634;51.136;17.024;2023-06-22T02:57:59;15;15;11
70243;PMS7003;57634;51.136;17.024;2023-06-22T03:01:05;16;15;10
70243;PMS7003;57634;51.136;17.024;2023-06-22T03:04:07;14;14;10
70243;PMS7003;57634;51.136;17.024;2023-06-22T03:07:10;15;14;10
70243;PMS7003;57634;51.136;17.024;2023-06-22T03:10:12;13;13;10
70243;PMS7003;57634;51.136;17.024;2023-06-22T03:13:40;13;13;10
70243;PMS7003;57634;51.136;17.024;2023-06-22T03:16:41;17;14;10
70243;PMS7003;57634;51.136;17.024;2023-06-22T03:19:42;13;13;9
70243;PMS7003;57634;51.136;17.024;2023-06-22T03:22:43;16;15;12
70243;PMS7003;57634;51.136;17.024;2023-06-22T03:25:44;15;14;10
70243;PMS7003;57634;51.136;17.024;2023-06-22T03:28:46;17;14;10
70243;PMS7003;57634;51.136;17.024;2023-06-22T03:31:47;15;14;11
70243;PMS7003;57634;51.136;17.024;2023-06-22T03:34:48;17;16;12
70243;PMS7003;57634;51.136;17.024;2023-06-22T03:37:50;17;16;11
70243;PMS7003;57634;51.136;17.024;2023-06-22T03:40:51;15;14;11
70243;PMS7003;57634;51.136;17.024;2023-06-22T03:43:52;13;13;10
70243;PMS7003;57634;51.136;17.024;2023-06-22T03:46:54;15;15;10
70243;PMS7003;57634;51.136;17.024;2023-06-22T03:49:55;16;15;11
70243;PMS7003;57634;51.136;17.024;2023-06-22T03:52:56;14;13;11
70243;PMS7003;57634;51.136;17.024;2023-06-22T03:55:57;18;15;11
70243;PMS7003;57634;51.136;17.024;2023-06-22T03:59:24;19;17;12
70243;PMS7003;57634;51.136;17.024;2023-06-22T04:02:26;15;14;11
70243;PMS7003;57634;51.136;17.024;2023-06-22T04:05:28;15;15;11
70243;PMS7003;57634;51.136;17.024;2023-06-22T04:08:29;15;15;11
70243;PMS7003;57634;51.136;17.024;2023-06-22T04:11:31;14;13;10
70243;PMS7003;57634;51.136;17.024;2023-06-22T04:14:32;16;15;11
70243;PMS7003;57634;51.136;17.024;2023-06-22T04:17:33;16;15;11
70243;PMS7003;57634;51.136;17.024;2023-06-22T04:20:34;17;16;11
70243;PMS7003;57634;51.136;17.024;2023-06-22T04:23:35;18;17;12
70243;PMS7003;57634;51.136;17.024;2023-06-22T04:26:36;16;15;11
70243;PMS7003;57634;51.136;17.024;2023-06-22T04:29:41;16;15;10
70243;PMS7003;57634;51.136;17.024;2023-06-22T04:32:49;17;17;11
70243;PMS7003;57634;51.136;17.024;2023-06-22T04:36:24;16;16;11
70243;PMS7003;57634;51.136;17.024;2023-06-22T04:39:25;16;16;11
70243;PMS7003;57634;51.136;17.024;2023-06-22T04:42:27;15;14;11
70243;PMS7003;57634;51.136;17.024;2023-06-22T04:45:29;16;16;11
70243;PMS7003;57634;51.136;17.024;2023-06-22T04:48:30;13;13;10
70243;PMS7003;57634;51.136;17.024;2023-06-22T04:51:43;15;15;11
70243;PMS7003;57634;51.136;17.024;2023-06-22T04:54:42;16;16;12
70243;PMS7003;57634;51.136;17.024;2023-06-22T04:57:53;13;13;10
70243;PMS7003;57634;51.136;17.024;2023-06-22T05:00:54;16;15;10
70243;PMS7003;57634;51.136;17.024;2023-06-22T05:03:58;15;14;10
70243;PMS7003;57634;51.136;17.024;2023-06-22T05:07:28;16;16;11
70243;PMS7003;57634;51.136;17.024;2023-06-22T05:10:29;12;11;9
70243;PMS7003;57634;51.136;17.024;2023-06-22T05:13:30;17;16;12
70243;PMS7003;57634;51.136;17.024;2023-06-22T05:16:32;13;13;10
70243;PMS7003;57634;51.136;17.024;2023-06-22T05:19:33;15;15;10
70243;PMS7003;57634;51.136;17.024;2023-06-22T05:22:35;19;17;11
70243;PMS7003;57634;51.136;17.024;2023-06-22T05:25:36;15;15;10
70243;PMS7003;57634;51.136;17.024;2023-06-22T05:28:37;12;12;11
70243;PMS7003;57634;51.136;17.024;2023-06-22T05:31:38;11;11;8
70243;PMS7003;57634;51.136;17.024;2023-06-22T05:34:42;15;14;10
70243;PMS7003;57634;51.136;17.024;2023-06-22T05:37:43;15;15;11
70243;PMS7003;57634;51.136;17.024;2023-06-22T05:40:45;12;12;10
70243;PMS7003;57634;51.136;17.024;2023-06-22T05:43:46;13;13;10
70243;PMS7003;57634;51.136;17.024;2023-06-22T05:46:47;12;12;9
70243;PMS7003;57634;51.136;17.024;2023-06-22T05:50:15;12;12;10
70243;PMS7003;57634;51.136;17.024;2023-06-22T05:53:17;12;12;10
70243;PMS7003;57634;51.136;17.024;2023-06-22T05:56:18;11;10;8
70243;PMS7003;57634;51.136;17.024;2023-06-22T05:59:20;10;10;8
70243;PMS7003;57634;51.136;17.024;2023-06-22T06:02:21;10;10;7
70243;PMS7003;57634;51.136;17.024;2023-06-22T06:05:23;9;9;7
70243;PMS7003;57634;51.136;17.024;2023-06-22T06:08:26;10;10;8
70243;PMS7003;57634;51.136;17.024;2023-06-22T06:11:27;8;8;6
70243;PMS7003;57634;51.136;17.024;2023-06-22T06:14:28;8;8;6
70243;PMS7003;57634;51.136;17.024;2023-06-22T06:17:30;8;8;6
70243;PMS7003;57634;51.136;17.024;2023-06-22T06:20:32;8;8;6
70243;PMS7003;57634;51.136;17.024;2023-06-22T06:23:33;9;9;6
70243;PMS7003;57634;51.136;17.024;2023-06-22T06:26:35;8;8;7
70243;PMS7003;57634;51.136;17.024;2023-06-22T06:29:36;11;11;8
70243;PMS7003;57634;51.136;17.024;2023-06-22T06:33:03;7;7;5
70243;PMS7003;57634;51.136;17.024;2023-06-22T06:36:09;11;9;7
70243;PMS7003;57634;51.136;17.024;2023-06-22T06:39:10;10;10;8
70243;PMS7003;57634;51.136;17.024;2023-06-22T06:42:12;11;11;8
70243;PMS7003;57634;51.136;17.024;2023-06-22T06:48:24;10;10;8
70243;PMS7003;57634;51.136;17.024;2023-06-22T06:51:25;11;11;8
70243;PMS7003;57634;51.136;17.024;2023-06-22T06:54:27;10;10;8
70243;PMS7003;57634;51.136;17.024;2023-06-22T06:57:28;12;9;7
70243;PMS7003;57634;51.136;17.024;2023-06-22T07:00:30;10;10;8
70243;PMS7003;57634;51.136;17.024;2023-06-22T07:03:32;10;10;7
70243;PMS7003;57634;51.136;17.024;2023-06-22T07:07:00;8;8;6
70243;PMS7003;57634;51.136;17.024;2023-06-22T07:10:04;11;11;8
70243;PMS7003;57634;51.136;17.024;2023-06-22T07:13:06;10;10;8
70243;PMS7003;57634;51.136;17.024;2023-06-22T07:16:08;8;8;7
70243;PMS7003;57634;51.136;17.024;2023-06-22T07:19:10;9;9;7
70243;PMS7003;57634;51.136;17.024;2023-06-22T07:22:13;10;10;8
70243;PMS7003;57634;51.136;17.024;2023-06-22T07:25:14;11;11;8
70243;PMS7003;57634;51.136;17.024;2023-06-22T07:28:15;11;11;9
70243;PMS7003;57634;51.136;17.024;2023-06-22T07:31:17;10;10;7
70243;PMS7003;57634;51.136;17.024;2023-06-22T07:34:18;10;10;7
70243;PMS7003;57634;51.136;17.024;2023-06-22T07:37:19;11;10;8
70243;PMS7003;57634;51.136;17.024;2023-06-22T07:40:20;9;8;6
70243;PMS7003;57634;51.136;17.024;2023-06-22T07:43:22;10;10;7
70243;PMS7003;57634;51.136;17.024;2023-06-22T07:46:50;10;10;8
70243;PMS7003;57634;51.136;17.024;2023-06-22T07:49:51;7;7;6
70243;PMS7003;57634;51.136;17.024;2023-06-22T07:52:55;10;10;6
70243;PMS7003;57634;51.136;17.024;2023-06-22T07:55:56;9;9;7
70243;PMS7003;57634;51.136;17.024;2023-06-22T07:58:57;9;9;7
70243;PMS7003;57634;51.136;17.024;2023-06-22T08:02:01;7;7;6
70243;PMS7003;57634;51.136;17.024;2023-06-22T08:05:04;8;8;6
70243;PMS7003;57634;51.136;17.024;2023-06-22T08:08:09;9;9;6
70243;PMS7003;57634;51.136;17.024;2023-06-22T08:11:10;8;8;5
70243;PMS7003;57634;51.136;17.024;2023-06-22T08:14:11;7;7;5
70243;PMS7003;57634;51.136;17.024;2023-06-22T08:17:13;7;7;6
70243;PMS7003;57634;51.136;17.024;2023-06-22T08:20:14;9;8;6
70243;PMS7003;57634;51.136;17.024;2023-06-22T08:23:43;6;6;5
70243;PMS7003;57634;51.136;17.024;2023-06-22T08:26:44;7;7;5
70243;PMS7003;57634;51.136;17.024;2023-06-22T08:29:46;6;6;5
70243;PMS7003;57634;51.136;17.024;2023-06-22T08:32:48;8;8;6
70243;PMS7003;57634;51.136;17.024;2023-06-22T08:35:49;9;9;6
70243;PMS7003;57634;51.136;17.024;2023-06-22T08:38:50;8;8;6
70243;PMS7003;57634;51.136;17.024;2023-06-22T08:41:53;7;7;5
70243;PMS7003;57634;51.136;17.024;2023-06-22T08:44:55;7;7;5
70243;PMS7003;57634;51.136;17.024;2023-06-22T08:47:56;8;8;5
70243;PMS7003;57634;51.136;17.024;2023-06-22T08:50:57;9;9;7
70243;PMS7003;57634;51.136;17.024;2023-06-22T08:53:59;5;5;5
70243;PMS7003;57634;51.136;17.024;2023-06-22T08:57:00;7;6;5
70243;PMS7003;57634;51.136;17.024;2023-06-22T09:00:05;7;7;6
70243;PMS7003;57634;51.136;17.024;2023-06-22T09:03:44;7;6;5
70243;PMS7003;57634;51.136;17.024;2023-06-22T09:06:54;4;4;4
70243;PMS7003;57634;51.136;17.024;2023-06-22T09:09:55;9;8;6
70243;PMS7003;57634;51.136;17.024;2023-06-22T09:12:57;8;8;7
70243;PMS7003;57634;51.136;17.024;2023-06-22T09:15:58;6;6;5
70243;PMS7003;57634;51.136;17.024;2023-06-22T09:19:00;6;6;5
70243;PMS7003;57634;51.136;17.024;2023-06-22T09:22:01;7;7;5
70243;PMS7003;57634;51.136;17.024;2023-06-22T09:25:04;6;6;5
70243;PMS7003;57634;51.136;17.024;2023-06-22T09:28:06;7;6;4
70243;PMS7003;57634;51.136;17.024;2023-06-22T09:31:08;6;6;4
70243;PMS7003;57634;51.136;17.024;2023-06-22T09:34:09;6;6;5
70243;PMS7003;57634;51.136;17.024;2023-06-22T09:37:10;6;6;4
70243;PMS7003;57634;51.136;17.024;2023-06-22T09:40:37;5;5;4
70243;PMS7003;57634;51.136;17.024;2023-06-22T09:43:41;6;6;4
70243;PMS7003;57634;51.136;17.024;2023-06-22T09:46:42;6;6;4
70243;PMS7003;57634;51.136;17.024;2023-06-22T09:49:43;6;6;4
70243;PMS7003;57634;51.136;17.024;2023-06-22T09:52:45;7;7;5
70243;PMS7003;57634;51.136;17.024;2023-06-22T09:55:55;2;2;1
70243;PMS7003;57634;51.136;17.024;2023-06-22T09:58:57;5;5;3
70243;PMS7003;57634;51.136;17.024;2023-06-22T10:01:59;5;5;5
70243;PMS7003;57634;51.136;17.024;2023-06-22T10:05:01;4;4;3
70243;PMS7003;57634;51.136;17.024;2023-06-22T10:08:02;5;5;4
70243;PMS7003;57634;51.136;17.024;2023-06-22T10:11:04;7;7;4
70243;PMS7003;57634;51.136;17.024;2023-06-22T10:14:33;9;8;6
70243;PMS7003;57634;51.136;17.024;2023-06-22T10:17:34;6;5;4
70243;PMS7003;57634;51.136;17.024;2023-06-22T10:20:36;6;6;5
70243;PMS7003;57634;51.136;17.024;2023-06-22T10:23:37;8;8;6
70243;PMS7003;57634;51.136;17.024;2023-06-22T10:26:38;7;7;5
70243;PMS7003;57634;51.136;17.024;2023-06-22T10:29:41;10;10;7
70243;PMS7003;57634;51.136;17.024;2023-06-22T10:32:43;8;8;6
70243;PMS7003;57634;51.136;17.024;2023-06-22T10:35:44;7;7;5
70243;PMS7003;57634;51.136;17.024;2023-06-22T10:38:46;9;8;7
70243;PMS7003;57634;51.136;17.024;2023-06-22T10:41:48;8;8;6
70243;PMS7003;57634;51.136;17.024;2023-06-22T10:44:49;7;7;6
70243;PMS7003;57634;51.136;17.024;2023-06-22T10:47:50;9;9;7
70243;PMS7003;57634;51.136;17.024;2023-06-22T10:50:52;7;7;6
70243;PMS7003;57634;51.136;17.024;2023-06-22T10:53:54;6;6;5
70243;PMS7003;57634;51.136;17.024;2023-06-22T10:57:21;8;8;6
70243;PMS7003;57634;51.136;17.024;2023-06-22T11:00:23;8;7;5
70243;PMS7003;57634;51.136;17.024;2023-06-22T11:03:24;6;6;5
70243;PMS7003;57634;51.136;17.024;2023-06-22T11:06:26;9;7;6
70243;PMS7003;57634;51.136;17.024;2023-06-22T11:09:27;11;10;7
70243;PMS7003;57634;51.136;17.024;2023-06-22T11:12:28;7;7;6
70243;PMS7003;57634;51.136;17.024;2023-06-22T11:15:29;8;8;5
70243;PMS7003;57634;51.136;17.024;2023-06-22T11:18:31;7;7;6
70243;PMS7003;57634;51.136;17.024;2023-06-22T11:21:34;5;5;4
70243;PMS7003;57634;51.136;17.024;2023-06-22T11:24:36;5;5;4
70243;PMS7003;57634;51.136;17.024;2023-06-22T11:27:37;7;7;5
70243;PMS7003;57634;51.136;17.024;2023-06-22T11:30:39;5;5;4
70243;PMS7003;57634;51.136;17.024;2023-06-22T11:33:40;7;5;3
70243;PMS7003;57634;51.136;17.024;2023-06-22T11:36:41;7;5;4
70243;PMS7003;57634;51.136;17.024;2023-06-22T11:40:10;7;7;6
70243;PMS7003;57634;51.136;17.024;2023-06-22T11:43:12;5;5;3
70243;PMS7003;57634;51.136;17.024;2023-06-22T11:46:15;7;5;4
70243;PMS7003;57634;51.136;17.024;2023-06-22T11:49:16;6;6;4
70243;PMS7003;57634;51.136;17.024;2023-06-22T11:52:17;5;5;4
70243;PMS7003;57634;51.136;17.024;2023-06-22T11:55:20;6;5;4
70243;PMS7003;57634;51.136;17.024;2023-06-22T11:58:21;8;8;6
70243;PMS7003;57634;51.136;17.024;2023-06-22T12:01:23;6;6;5
70243;PMS7003;57634;51.136;17.024;2023-06-22T12:04:24;8;7;5
70243;PMS7003;57634;51.136;17.024;2023-06-22T12:07:26;9;8;6
70243;PMS7003;57634;51.136;17.024;2023-06-22T12:10:27;7;6;5
70243;PMS7003;57634;51.136;17.024;2023-06-22T12:13:32;8;8;5
70243;PMS7003;57634;51.136;17.024;2023-06-22T12:16:34;8;8;6
70243;PMS7003;57634;51.136;17.024;2023-06-22T12:20:01;9;9;7
70243;PMS7003;57634;51.136;17.024;2023-06-22T12:23:06;8;8;6
70243;PMS7003;57634;51.136;17.024;2023-06-22T12:26:07;9;8;6
70243;PMS7003;57634;51.136;17.024;2023-06-22T12:29:08;8;8;6
70243;PMS7003;57634;51.136;17.024;2023-06-22T12:32:10;7;7;5
70243;PMS7003;57634;51.136;17.024;2023-06-22T12:35:14;8;8;6
70243;PMS7003;57634;51.136;17.024;2023-06-22T12:38:15;8;8;6
70243;PMS7003;57634;51.136;17.024;2023-06-22T12:41:16;8;7;6
70243;PMS7003;57634;51.136;17.024;2023-06-22T12:44:17;8;8;6
70243;PMS7003;57634;51.136;17.024;2023-06-22T12:47:18;7;7;5
70243;PMS7003;57634;51.136;17.024;2023-06-22T12:50:20;7;7;6
70243;PMS7003;57634;51.136;17.024;2023-06-22T12:53:21;11;11;8
70243;PMS7003;57634;51.136;17.024;2023-06-22T12:56:24;8;8;6
70243;PMS7003;57634;51.136;17.024;2023-06-22T12:59:52;8;8;6
70243;PMS7003;57634;51.136;17.024;2023-06-22T13:02:53;8;7;6
70243;PMS7003;57634;51.136;17.024;2023-06-22T13:05:58;8;8;6
70243;PMS7003;57634;51.136;17.024;2023-06-22T13:09:00;9;9;8
70243;PMS7003;57634;51.136;17.024;2023-06-22T13:13:38;9;9;7
70243;PMS7003;57634;51.136;17.024;2023-06-22T13:16:39;8;8;6
70243;PMS7003;57634;51.136;17.024;2023-06-22T13:19:40;11;11;8
70243;PMS7003;57634;51.136;17.024;2023-06-22T13:22:42;10;10;7
70243;PMS7003;57634;51.136;17.024;2023-06-22T13:25:44;16;16;13
70243;PMS7003;57634;51.136;17.024;2023-06-22T13:28:46;12;9;7
70243;PMS7003;57634;51.136;17.024;2023-06-22T13:31:47;8;8;5
70243;PMS7003;57634;51.136;17.024;2023-06-22T13:34:49;10;9;7
70243;PMS7003;57634;51.136;17.024;2023-06-22T13:37:50;9;9;6
70243;PMS7003;57634;51.136;17.024;2023-06-22T13:40:51;11;11;8
70243;PMS7003;57634;51.136;17.024;2023-06-22T13:43:52;9;8;6
70243;PMS7003;57634;51.136;17.024;2023-06-22T13:46:54;9;9;7
70243;PMS7003;57634;51.136;17.024;2023-06-22T13:49:55;7;7;7
70243;PMS7003;57634;51.136;17.024;2023-06-22T13:53:24;10;9;6
70243;PMS7003;57634;51.136;17.024;2023-06-22T13:56:27;10;10;8
70243;PMS7003;57634;51.136;17.024;2023-06-22T13:59:28;9;9;7
70243;PMS7003;57634;51.136;17.024;2023-06-22T14:02:29;8;8;6
70243;PMS7003;57634;51.136;17.024;2023-06-22T14:05:31;8;7;5
70243;PMS7003;57634;51.136;17.024;2023-06-22T14:08:32;7;7;5
70243;PMS7003;57634;51.136;17.024;2023-06-22T14:11:33;10;8;6
70243;PMS7003;57634;51.136;17.024;2023-06-22T14:14:34;9;9;7
70243;PMS7003;57634;51.136;17.024;2023-06-22T14:17:36;8;8;7
70243;PMS7003;57634;51.136;17.024;2023-06-22T14:20:37;8;8;6
70243;PMS7003;57634;51.136;17.024;2023-06-22T14:23:40;9;9;6
70243;PMS7003;57634;51.136;17.024;2023-06-22T14:26:42;8;7;6
70243;PMS7003;57634;51.136;17.024;2023-06-22T14:29:43;8;8;6
70243;PMS7003;57634;51.136;17.024;2023-06-22T14:32:44;8;7;6
70243;PMS7003;57634;51.136;17.024;2023-06-22T14:36:12;8;8;5
70243;PMS7003;57634;51.136;17.024;2023-06-22T14:39:13;8;8;6
70243;PMS7003;57634;51.136;17.024;2023-06-22T14:42:14;7;6;5
70243;PMS7003;57634;51.136;17.024;2023-06-22T14:45:16;6;6;4
70243;PMS7003;57634;51.136;17.024;2023-06-22T14:48:17;6;6;5
70243;PMS7003;57634;51.136;17.024;2023-06-22T14:51:18;7;7;6
70243;PMS7003;57634;51.136;17.024;2023-06-22T14:54:19;6;6;5
70243;PMS7003;57634;51.136;17.024;2023-06-22T14:57:20;8;8;6
70243;PMS7003;57634;51.136;17.024;2023-06-22T15:00:23;7;6;5
70243;PMS7003;57634;51.136;17.024;2023-06-22T15:03:25;9;8;7
70243;PMS7003;57634;51.136;17.024;2023-06-22T15:06:31;8;8;7
70243;PMS7003;57634;51.136;17.024;2023-06-22T15:09:32;8;8;7
70243;PMS7003;57634;51.136;17.024;2023-06-22T15:12:34;6;6;5
70243;PMS7003;57634;51.136;17.024;2023-06-22T15:16:02;8;8;6
70243;PMS7003;57634;51.136;17.024;2023-06-22T15:19:06;9;9;7
70243;PMS7003;57634;51.136;17.024;2023-06-22T15:22:07;8;8;6
70243;PMS7003;57634;51.136;17.024;2023-06-22T15:25:08;7;6;5
70243;PMS7003;57634;51.136;17.024;2023-06-22T15:28:11;11;7;5
70243;PMS7003;57634;51.136;17.024;2023-06-22T15:31:13;10;10;7
70243;PMS7003;57634;51.136;17.024;2023-06-22T15:34:14;8;8;7
70243;PMS7003;57634;51.136;17.024;2023-06-22T15:37:15;9;9;7
70243;PMS7003;57634;51.136;17.024;2023-06-22T15:40:17;8;8;7
70243;PMS7003;57634;51.136;17.024;2023-06-22T15:43:18;9;8;7
70243;PMS7003;57634;51.136;17.024;2023-06-22T15:46:20;8;8;5
70243;PMS7003;57634;51.136;17.024;2023-06-22T15:49:21;7;7;5
70243;PMS7003;57634;51.136;17.024;2023-06-22T15:52:23;7;6;5
70243;PMS7003;57634;51.136;17.024;2023-06-22T15:55:51;7;7;6
70243;PMS7003;57634;51.136;17.024;2023-06-22T15:58:55;10;9;8
70243;PMS7003;57634;51.136;17.024;2023-06-22T16:01:57;9;9;6
70243;PMS7003;57634;51.136;17.024;2023-06-22T16:04:59;10;9;7
70243;PMS7003;57634;51.136;17.024;2023-06-22T16:08:02;8;7;6
70243;PMS7003;57634;51.136;17.024;2023-06-22T16:11:03;8;8;6
70243;PMS7003;57634;51.136;17.024;2023-06-22T16:14:05;9;9;7
70243;PMS7003;57634;51.136;17.024;2023-06-22T16:17:09;8;7;5
70243;PMS7003;57634;51.136;17.024;2023-06-22T16:20:10;9;9;7
70243;PMS7003;57634;51.136;17.024;2023-06-22T16:23:12;8;8;6
70243;PMS7003;57634;51.136;17.024;2023-06-22T16:26:13;8;7;6
70243;PMS7003;57634;51.136;17.024;2023-06-22T16:29:14;10;9;7
70243;PMS7003;57634;51.136;17.024;2023-06-22T16:32:16;9;8;6
70243;PMS7003;57634;51.136;17.024;2023-06-22T16:35:44;11;9;6
70243;PMS7003;57634;51.136;17.024;2023-06-22T16:38:45;8;8;6
70243;PMS7003;57634;51.136;17.024;2023-06-22T16:41:46;8;8;7
70243;PMS7003;57634;51.136;17.024;2023-06-22T16:44:47;10;10;7
70243;PMS7003;57634;51.136;17.024;2023-06-22T16:47:49;8;8;6
70243;PMS7003;57634;51.136;17.024;2023-06-22T16:50:51;10;9;8
70243;PMS7003;57634;51.136;17.024;2023-06-22T16:53:53;9;9;7
70243;PMS7003;57634;51.136;17.024;2023-06-22T16:57:01;7;7;6
70243;PMS7003;57634;51.136;17.024;2023-06-22T17:00:07;8;8;7
70243;PMS7003;57634;51.136;17.024;2023-06-22T17:03:15;9;9;7
70243;PMS7003;57634;51.136;17.024;2023-06-22T17:06:48;9;9;7
70243;PMS7003;57634;51.136;17.024;2023-06-22T17:09:55;11;9;7
70243;PMS7003;57634;51.136;17.024;2023-06-22T17:12:58;9;8;6
70243;PMS7003;57634;51.136;17.024;2023-06-22T17:15:59;10;10;7
70243;PMS7003;57634;51.136;17.024;2023-06-22T17:19:03;10;8;6
70243;PMS7003;57634;51.136;17.024;2023-06-22T17:22:06;9;8;7
70243;PMS7003;57634;51.136;17.024;2023-06-22T17:25:10;9;9;7
70243;PMS7003;57634;51.136;17.024;2023-06-22T17:28:11;10;9;7
70243;PMS7003;57634;51.136;17.024;2023-06-22T17:31:12;10;10;7
70243;PMS7003;57634;51.136;17.024;2023-06-22T17:34:14;10;10;8
70243;PMS7003;57634;51.136;17.024;2023-06-22T17:37:16;9;8;6
70243;PMS7003;57634;51.136;17.024;2023-06-22T17:40:44;9;9;7
70243;PMS7003;57634;51.136;17.024;2023-06-22T17:43:45;8;7;6
70243;PMS7003;57634;51.136;17.024;2023-06-22T17:46:50;11;11;8
70243;PMS7003;57634;51.136;17.024;2023-06-22T17:50:02;8;8;6
70243;PMS7003;57634;51.136;17.024;2023-06-22T17:53:08;9;9;6
70243;PMS7003;57634;51.136;17.024;2023-06-22T17:56:13;9;9;6
70243;PMS7003;57634;51.136;17.024;2023-06-22T17:59:14;9;9;7
70243;PMS7003;57634;51.136;17.024;2023-06-22T18:02:18;8;8;7
70243;PMS7003;57634;51.136;17.024;2023-06-22T18:05:50;12;12;9
70243;PMS7003;57634;51.136;17.024;2023-06-22T18:08:53;9;9;7
70243;PMS7003;57634;51.136;17.024;2023-06-22T18:12:01;9;9;6
70243;PMS7003;57634;51.136;17.024;2023-06-22T18:15:07;8;8;5
70243;PMS7003;57634;51.136;17.024;2023-06-22T18:18:08;7;7;6
70243;PMS7003;57634;51.136;17.024;2023-06-22T18:21:11;6;6;4
70243;PMS7003;57634;51.136;17.024;2023-06-22T18:24:16;6;5;4
70243;PMS7003;57634;51.136;17.024;2023-06-22T18:27:17;8;7;6
70243;PMS7003;57634;51.136;17.024;2023-06-22T18:30:20;7;6;4
70243;PMS7003;57634;51.136;17.024;2023-06-22T18:33:22;6;5;4
70243;PMS7003;57634;51.136;17.024;2023-06-22T18:36:50;6;6;4
70243;PMS7003;57634;51.136;17.024;2023-06-22T18:39:54;5;5;4
70243;PMS7003;57634;51.136;17.024;2023-06-22T18:43:00;4;4;4
70243;PMS7003;57634;51.136;17.024;2023-06-22T18:46:49;4;4;4
70243;PMS7003;57634;51.136;17.024;2023-06-22T18:49:14;5;5;4
70243;PMS7003;57634;51.136;17.024;2023-06-22T18:52:16;6;6;5
70243;PMS7003;57634;51.136;17.024;2023-06-22T18:55:22;6;6;5
70243;PMS7003;57634;51.136;17.024;2023-06-22T18:58:26;6;6;4
70243;PMS7003;57634;51.136;17.024;2023-06-22T19:01:54;6;5;4
70243;PMS7003;57634;51.136;17.024;2023-06-22T19:08:14;5;5;3
70243;PMS7003;57634;51.136;17.024;2023-06-22T19:11:16;5;5;4
70243;PMS7003;57634;51.136;17.024;2023-06-22T19:14:20;5;5;4
70243;PMS7003;57634;51.136;17.024;2023-06-22T19:17:23;12;12;9
70243;PMS7003;57634;51.136;17.024;2023-06-22T19:20:25;7;7;6
70243;PMS7003;57634;51.136;17.024;2023-06-22T19:24:03;8;7;6
70243;PMS7003;57634;51.136;17.024;2023-06-22T19:27:04;8;7;5
70243;PMS7003;57634;51.136;17.024;2023-06-22T19:30:07;8;7;6
70243;PMS7003;57634;51.136;17.024;2023-06-22T19:33:13;6;6;4
70243;PMS7003;57634;51.136;17.024;2023-06-22T19:36:18;5;5;4
70243;PMS7003;57634;51.136;17.024;2023-06-22T19:39:22;6;6;4
70243;PMS7003;57634;51.136;17.024;2023-06-22T19:42:23;6;5;4
70243;PMS7003;57634;51.136;17.024;2023-06-22T19:45:24;6;6;4
70243;PMS7003;57634;51.136;17.024;2023-06-22T19:55:03;7;6;4
70243;PMS7003;57634;51.136;17.024;2023-06-22T19:58:09;6;5;4
70243;PMS7003;57634;51.136;17.024;2023-06-22T20:01:11;5;4;3
70243;PMS7003;57634;51.136;17.024;2023-06-22T20:04:12;5;5;4
70243;PMS7003;57634;51.136;17.024;2023-06-22T20:07:14;6;6;4
70243;PMS7003;57634;51.136;17.024;2023-06-22T20:10:19;7;7;5
70243;PMS7003;57634;51.136;17.024;2023-06-22T20:13:22;6;6;5
70243;PMS7003;57634;51.136;17.024;2023-06-22T20:16:28;6;6;5
70243;PMS7003;57634;51.136;17.024;2023-06-22T20:20:17;5;5;4
70243;PMS7003;57634;51.136;17.024;2023-06-22T20:23:21;5;5;4
70243;PMS7003;57634;51.136;17.024;2023-06-22T20:26:22;6;6;5
70243;PMS7003;57634;51.136;17.024;2023-06-22T20:32:45;6;6;5
70243;PMS7003;57634;51.136;17.024;2023-06-22T20:35:50;7;7;5
70243;PMS7003;57634;51.136;17.024;2023-06-22T20:39:18;5;5;4
70243;PMS7003;57634;51.136;17.024;2023-06-22T20:42:20;7;6;5